sensor_id;sensor_type;location;lat;lon;timestamp;pressure;altitude;pressure_sealevel;temperature;humidity
62152;BME280;48139;47.474;19.034;2022-10-26T03:46:31;100991.78;;;9.64;100.00
62152;BME280;48139;47.474;19.034;2022-10-26T03:49:34;100991.78;;;9.64;100.00
62152;BME280;48139;47.474;19.034;2022-10-26T03:52:37;100995.06;;;9.17;100.00
62152;BME280;48139;47.474;19.034;2022-10-26T03:55:43;101001.94;;;9.19;100.00
62152;BME280;48139;47.474;19.034;2022-10-26T03:58:45;100997.56;;;9.20;100.00
62152;BME280;48139;47.474;19.034;2022-10-26T04:01:48;101001.16;;;9.17;100.00
62152;BME280;48139;47.474;19.034;2022-10-26T04:04:56;101000.31;;;9.17;100.00
62152;BME280;48139;47.474;19.034;2022-10-26T04:08:00;101000.22;;;9.18;100.00
62152;BME280;48139;47.474;19.034;2022-10-26T04:11:06;100998.53;;;9.17;100.00
62152;BME280;48139;47.474;19.034;2022-10-26T04:14:08;101004.66;;;9.16;100.00
62152;BME280;48139;47.474;19.034;2022-10-26T04:17:11;101019.34;;;9.20;100.00
62152;BME280;48139;47.474;19.034;2022-10-26T04:20:13;101018.50;;;9.20;100.00
62152;BME280;48139;47.474;19.034;2022-10-26T04:23:18;101009.00;;;9.17;100.00
62152;BME280;48139;47.474;19.034;2022-10-26T04:26:20;101012.22;;;9.25;100.00
62152;BME280;48139;47.474;19.034;2022-10-26T04:29:23;101019.38;;;9.19;100.00
62152;BME280;48139;47.474;19.034;2022-10-26T04:32:25;101016.00;;;9.17;100.00
62152;BME280;48139;47.474;19.034;2022-10-26T04:35:28;101013.37;;;9.17;100.00
62152;BME280;48139;47.474;19.034;2022-10-26T04:38:31;101006.47;;;9.14;100.00
62152;BME280;48139;47.474;19.034;2022-10-26T04:41:33;101015.16;;;9.15;100.00
62152;BME280;48139;47.474;19.034;2022-10-26T04:44:36;101011.62;;;9.17;100.00
62152;BME280;48139;47.474;19.034;2022-10-26T04:47:39;101004.88;;;9.10;100.00
62152;BME280;48139;47.474;19.034;2022-10-26T04:50:41;101009.19;;;9.11;100.00
62152;BME280;48139;47.474;19.034;2022-10-26T04:53:44;101009.97;;;9.13;100.00
62152;BME280;48139;47.474;19.034;2022-10-26T04:56:46;101002.25;;;9.10;100.00
62152;BME280;48139;47.474;19.034;2022-10-26T04:59:49;101006.66;;;9.08;100.00
62152;BME280;48139;47.474;19.034;2022-10-26T05:03:00;101007.44;;;9.12;100.00
62152;BME280;48139;47.474;19.034;2022-10-26T05:06:04;101004.88;;;9.10;100.00
62152;BME280;48139;47.474;19.034;2022-10-26T05:09:06;101013.41;;;9.15;100.00
62152;BME280;48139;47.474;19.034;2022-10-26T05:12:09;101009.13;;;9.13;100.00
62152;BME280;48139;47.474;19.034;2022-10-26T05:15:11;101006.37;;;9.17;100.00
62152;BME280;48139;47.474;19.034;2022-10-26T05:18:16;101007.19;;;9.19;100.00
62152;BME280;48139;47.474;19.034;2022-10-26T05:21:18;101009.13;;;9.13;100.00
62152;BME280;48139;47.474;19.034;2022-10-26T05:24:21;101023.91;;;9.14;100.00
62152;BME280;48139;47.474;19.034;2022-10-26T05:27:23;101028.00;;;9.22;100.00
62152;BME280;48139;47.474;19.034;2022-10-26T05:30:28;101023.25;;;9.35;100.00
62152;BME280;48139;47.474;19.034;2022-10-26T05:33:31;101033.00;;;9.30;100.00
62152;BME280;48139;47.474;19.034;2022-10-26T05:36:33;101033.09;;;9.27;100.00
62152;BME280;48139;47.474;19.034;2022-10-26T05:39:35;101036.31;;;9.35;100.00
62152;BME280;48139;47.474;19.034;2022-10-26T05:42:38;101030.25;;;9.35;100.00
62152;BME280;48139;47.474;19.034;2022-10-26T05:45:40;101027.78;;;9.30;100.00
62152;BME280;48139;47.474;19.034;2022-10-26T05:48:43;101034.88;;;9.25;100.00
62152;BME280;48139;47.474;19.034;2022-10-26T05:51:45;101041.94;;;9.23;100.00
62152;BME280;48139;47.474;19.034;2022-10-26T05:54:48;101041.44;;;9.38;100.00
62152;BME280;48139;47.474;19.034;2022-10-26T05:57:50;101043.00;;;9.44;100.00
62152;BME280;48139;47.474;19.034;2022-10-26T06:01:15;101056.34;;;9.62;100.00
62152;BME280;48139;47.474;19.034;2022-10-26T06:04:36;101049.75;;;9.79;100.00
62152;BME280;48139;47.474;19.034;2022-10-26T06:07:40;101050.97;;;9.93;100.00
62152;BME280;48139;47.474;19.034;2022-10-26T06:10:43;101051.28;;;10.10;100.00
62152;BME280;48139;47.474;19.034;2022-10-26T06:13:45;101056.53;;;10.10;100.00
62152;BME280;48139;47.474;19.034;2022-10-26T06:20:16;101071.16;;;10.16;100.00
62152;BME280;48139;47.474;19.034;2022-10-26T06:23:39;101078.31;;;10.11;100.00
62152;BME280;48139;47.474;19.034;2022-10-26T06:27:06;101069.44;;;10.15;100.00
62152;BME280;48139;47.474;19.034;2022-10-26T06:30:20;101067.91;;;10.36;99.32
62152;BME280;48139;47.474;19.034;2022-10-26T06:33:25;101067.19;;;10.31;99.95
62152;BME280;48139;47.474;19.034;2022-10-26T06:36:32;101075.13;;;10.29;100.00
62152;BME280;48139;47.474;19.034;2022-10-26T06:39:38;101071.59;;;10.30;100.00
62152;BME280;48139;47.474;19.034;2022-10-26T06:42:43;101074.69;;;10.41;99.96
62152;BME280;48139;47.474;19.034;2022-10-26T06:45:47;101079.75;;;10.46;99.33
62152;BME280;48139;47.474;19.034;2022-10-26T06:49:08;101083.97;;;10.50;99.84
62152;BME280;48139;47.474;19.034;2022-10-26T06:55:30;101080.59;;;10.95;97.46
62152;BME280;48139;47.474;19.034;2022-10-26T06:58:39;101088.47;;;10.95;97.18
62152;BME280;48139;47.474;19.034;2022-10-26T07:01:42;101094.13;;;11.07;95.65
62152;BME280;48139;47.474;19.034;2022-10-26T07:04:45;101091.44;;;11.09;94.86
62152;BME280;48139;47.474;19.034;2022-10-26T07:07:48;101085.09;;;11.14;95.10
62152;BME280;48139;47.474;19.034;2022-10-26T07:10:51;101088.16;;;11.25;92.99
62152;BME280;48139;47.474;19.034;2022-10-26T07:13:54;101082.78;;;11.30;92.98
62152;BME280;48139;47.474;19.034;2022-10-26T07:16:56;101087.03;;;11.32;92.92
62152;BME280;48139;47.474;19.034;2022-10-26T07:19:59;101081.34;;;11.21;92.15
62152;BME280;48139;47.474;19.034;2022-10-26T07:23:01;101096.44;;;11.15;92.88
62152;BME280;48139;47.474;19.034;2022-10-26T07:26:04;101098.63;;;11.04;93.70
62152;BME280;48139;47.474;19.034;2022-10-26T07:29:06;101104.81;;;11.01;94.33
62152;BME280;48139;47.474;19.034;2022-10-26T07:32:09;101106.50;;;11.04;94.56
62152;BME280;48139;47.474;19.034;2022-10-26T07:35:11;101103.59;;;11.11;94.19
62152;BME280;48139;47.474;19.034;2022-10-26T07:38:14;101107.56;;;11.21;93.54
62152;BME280;48139;47.474;19.034;2022-10-26T07:41:16;101101.84;;;11.33;92.86
62152;BME280;48139;47.474;19.034;2022-10-26T07:44:19;101107.59;;;11.43;92.88
62152;BME280;48139;47.474;19.034;2022-10-26T07:47:21;101101.03;;;11.55;92.16
62152;BME280;48139;47.474;19.034;2022-10-26T07:50:24;101108.28;;;11.48;91.97
62152;BME280;48139;47.474;19.034;2022-10-26T07:53:27;101105.84;;;11.65;90.95
62152;BME280;48139;47.474;19.034;2022-10-26T07:56:29;101101.31;;;11.69;90.75
62152;BME280;48139;47.474;19.034;2022-10-26T07:59:32;101103.44;;;11.83;90.19
62152;BME280;48139;47.474;19.034;2022-10-26T08:02:35;101104.00;;;11.91;89.62
62152;BME280;48139;47.474;19.034;2022-10-26T08:05:37;101101.13;;;11.97;88.92
62152;BME280;48139;47.474;19.034;2022-10-26T08:08:40;101100.38;;;11.93;89.33
62152;BME280;48139;47.474;19.034;2022-10-26T08:11:48;101095.47;;;11.86;90.02
62152;BME280;48139;47.474;19.034;2022-10-26T08:14:50;101095.56;;;11.83;90.30
62152;BME280;48139;47.474;19.034;2022-10-26T08:17:53;101093.19;;;11.77;90.61
62152;BME280;48139;47.474;19.034;2022-10-26T08:21:00;101098.50;;;11.75;90.88
62152;BME280;48139;47.474;19.034;2022-10-26T08:24:13;101097.34;;;11.82;90.81
62152;BME280;48139;47.474;19.034;2022-10-26T08:27:16;101100.72;;;12.06;91.22
62152;BME280;48139;47.474;19.034;2022-10-26T08:30:19;101098.94;;;12.28;89.49
62152;BME280;48139;47.474;19.034;2022-10-26T08:33:22;101100.81;;;12.65;86.68
62152;BME280;48139;47.474;19.034;2022-10-26T08:36:26;101097.87;;;12.73;86.43
62152;BME280;48139;47.474;19.034;2022-10-26T08:39:28;101100.22;;;12.79;86.29
62152;BME280;48139;47.474;19.034;2022-10-26T08:42:39;101096.56;;;13.02;85.12
62152;BME280;48139;47.474;19.034;2022-10-26T08:45:53;101097.09;;;13.28;83.97
62152;BME280;48139;47.474;19.034;2022-10-26T08:49:10;101100.34;;;13.71;82.40
62152;BME280;48139;47.474;19.034;2022-10-26T08:52:18;101110.06;;;13.69;81.58
62152;BME280;48139;47.474;19.034;2022-10-26T08:55:25;101109.69;;;13.41;83.87
62152;BME280;48139;47.474;19.034;2022-10-26T08:58:37;101105.34;;;13.40;84.55
62152;BME280;48139;47.474;19.034;2022-10-26T09:01:41;101110.59;;;13.40;84.36
62152;BME280;48139;47.474;19.034;2022-10-26T09:04:44;101112.44;;;13.38;84.37
62152;BME280;48139;47.474;19.034;2022-10-26T09:20:58;101123.31;;;13.86;82.90
62152;BME280;48139;47.474;19.034;2022-10-26T09:24:19;101119.78;;;14.04;81.87
62152;BME280;48139;47.474;19.034;2022-10-26T09:27:32;101126.84;;;14.21;81.67
62152;BME280;48139;47.474;19.034;2022-10-26T09:30:35;101127.53;;;14.25;81.48
62152;BME280;48139;47.474;19.034;2022-10-26T09:33:39;101133.19;;;14.34;81.10
62152;BME280;48139;47.474;19.034;2022-10-26T09:36:41;101134.91;;;14.35;81.35
62152;BME280;48139;47.474;19.034;2022-10-26T09:39:51;101135.78;;;14.53;81.25
62152;BME280;48139;47.474;19.034;2022-10-26T09:46:01;101138.34;;;14.72;81.32
62152;BME280;48139;47.474;19.034;2022-10-26T09:49:05;101133.97;;;14.88;82.52
62152;BME280;48139;47.474;19.034;2022-10-26T09:52:10;101134.75;;;15.23;84.06
62152;BME280;48139;47.474;19.034;2022-10-26T09:55:17;101131.31;;;15.54;82.83
62152;BME280;48139;47.474;19.034;2022-10-26T09:58:26;101134.44;;;15.76;82.81
62152;BME280;48139;47.474;19.034;2022-10-26T10:01:32;101134.09;;;15.98;81.05
62152;BME280;48139;47.474;19.034;2022-10-26T10:04:45;101136.69;;;16.13;80.01
62152;BME280;48139;47.474;19.034;2022-10-26T10:07:49;101135.69;;;16.16;79.30
62152;BME280;48139;47.474;19.034;2022-10-26T10:14:06;101134.12;;;16.12;79.33
62152;BME280;48139;47.474;19.034;2022-10-26T10:17:20;101149.19;;;15.96;79.87
62152;BME280;48139;47.474;19.034;2022-10-26T10:20:30;101139.22;;;15.85;79.97
62152;BME280;48139;47.474;19.034;2022-10-26T10:23:47;101138.50;;;15.50;81.32
62152;BME280;48139;47.474;19.034;2022-10-26T10:26:58;101143.06;;;15.15;83.00
62152;BME280;48139;47.474;19.034;2022-10-26T10:30:20;101141.53;;;15.11;83.76
62152;BME280;48139;47.474;19.034;2022-10-26T10:33:34;101149.53;;;15.10;83.76
62152;BME280;48139;47.474;19.034;2022-10-26T10:36:38;101155.44;;;14.98;84.74
62152;BME280;48139;47.474;19.034;2022-10-26T10:39:41;101140.00;;;14.90;85.50
62152;BME280;48139;47.474;19.034;2022-10-26T10:42:45;101137.53;;;14.87;86.01
62152;BME280;48139;47.474;19.034;2022-10-26T10:45:51;101137.34;;;15.07;85.61
62152;BME280;48139;47.474;19.034;2022-10-26T10:49:04;101140.16;;;15.20;85.10
62152;BME280;48139;47.474;19.034;2022-10-26T10:52:21;101135.16;;;15.15;85.03
62152;BME280;48139;47.474;19.034;2022-10-26T10:55:24;101143.59;;;15.22;85.02
62152;BME280;48139;47.474;19.034;2022-10-26T11:01:48;101130.91;;;15.44;84.39
62152;BME280;48139;47.474;19.034;2022-10-26T11:08:08;101129.97;;;15.45;83.87
62152;BME280;48139;47.474;19.034;2022-10-26T11:11:35;101126.34;;;15.63;83.92
62152;BME280;48139;47.474;19.034;2022-10-26T11:14:47;101122.94;;;15.77;82.85
62152;BME280;48139;47.474;19.034;2022-10-26T11:21:27;101120.72;;;15.69;83.37
62152;BME280;48139;47.474;19.034;2022-10-26T11:24:41;101118.94;;;15.70;83.32
62152;BME280;48139;47.474;19.034;2022-10-26T11:27:52;101115.53;;;15.84;83.11
62152;BME280;48139;47.474;19.034;2022-10-26T11:31:00;101117.75;;;15.91;82.86
62152;BME280;48139;47.474;19.034;2022-10-26T11:34:43;101111.91;;;16.00;82.81
62152;BME280;48139;47.474;19.034;2022-10-26T11:38:02;101113.81;;;15.98;82.34
62152;BME280;48139;47.474;19.034;2022-10-26T11:44:34;101110.16;;;15.85;83.98
62152;BME280;48139;47.474;19.034;2022-10-26T11:47:44;101098.50;;;15.73;84.33
62152;BME280;48139;47.474;19.034;2022-10-26T11:50:52;101101.00;;;15.61;85.12
62152;BME280;48139;47.474;19.034;2022-10-26T11:54:02;101107.94;;;15.62;85.32
62152;BME280;48139;47.474;19.034;2022-10-26T11:57:08;101103.31;;;15.50;85.76
62152;BME280;48139;47.474;19.034;2022-10-26T12:03:22;101102.41;;;15.35;87.16
62152;BME280;48139;47.474;19.034;2022-10-26T12:06:30;101105.88;;;15.36;87.30
62152;BME280;48139;47.474;19.034;2022-10-26T12:09:36;101101.72;;;15.63;87.00
62152;BME280;48139;47.474;19.034;2022-10-26T12:16:38;101101.09;;;16.05;85.07
62152;BME280;48139;47.474;19.034;2022-10-26T12:22:52;101091.63;;;16.61;81.69
62152;BME280;48139;47.474;19.034;2022-10-26T12:29:30;101095.13;;;16.75;81.69
62152;BME280;48139;47.474;19.034;2022-10-26T12:35:37;101088.59;;;16.81;80.36
62152;BME280;48139;47.474;19.034;2022-10-26T12:41:54;101084.94;;;16.83;80.52
62152;BME280;48139;47.474;19.034;2022-10-26T12:48:01;101081.16;;;16.87;80.39
62152;BME280;48139;47.474;19.034;2022-10-26T12:54:39;101068.00;;;17.00;80.11
62152;BME280;48139;47.474;19.034;2022-10-26T13:04:29;101063.06;;;17.22;80.15
62152;BME280;48139;47.474;19.034;2022-10-26T13:07:40;101077.13;;;17.37;79.65
62152;BME280;48139;47.474;19.034;2022-10-26T13:11:12;101080.53;;;17.39;78.88
62152;BME280;48139;47.474;19.034;2022-10-26T13:17:25;101070.34;;;17.33;79.42
62152;BME280;48139;47.474;19.034;2022-10-26T13:20:30;101072.03;;;17.34;79.44
62152;BME280;48139;47.474;19.034;2022-10-26T13:23:35;101070.09;;;17.23;79.32
62152;BME280;48139;47.474;19.034;2022-10-26T13:27:44;101071.37;;;17.30;79.13
62152;BME280;48139;47.474;19.034;2022-10-26T13:30:44;101079.69;;;17.39;78.80
62152;BME280;48139;47.474;19.034;2022-10-26T13:33:50;101085.72;;;17.55;79.30
62152;BME280;48139;47.474;19.034;2022-10-26T13:37:11;101087.50;;;17.54;79.07
62152;BME280;48139;47.474;19.034;2022-10-26T13:40:21;101081.25;;;17.55;78.74
62152;BME280;48139;47.474;19.034;2022-10-26T13:43:25;101082.59;;;17.48;78.84
62152;BME280;48139;47.474;19.034;2022-10-26T13:46:30;101076.16;;;17.52;78.14
62152;BME280;48139;47.474;19.034;2022-10-26T13:49:42;101085.66;;;17.42;79.12
62152;BME280;48139;47.474;19.034;2022-10-26T13:52:58;101082.41;;;17.37;78.56
62152;BME280;48139;47.474;19.034;2022-10-26T13:59:24;101088.56;;;17.38;78.73
62152;BME280;48139;47.474;19.034;2022-10-26T14:02:28;101086.53;;;17.28;79.21
62152;BME280;48139;47.474;19.034;2022-10-26T14:05:49;101090.87;;;17.15;81.23
62152;BME280;48139;47.474;19.034;2022-10-26T14:08:55;101091.75;;;17.16;81.64
62152;BME280;48139;47.474;19.034;2022-10-26T14:12:00;101091.34;;;17.08;80.79
62152;BME280;48139;47.474;19.034;2022-10-26T14:15:07;101089.09;;;17.16;81.19
62152;BME280;48139;47.474;19.034;2022-10-26T14:18:16;101088.22;;;17.15;81.03
62152;BME280;48139;47.474;19.034;2022-10-26T14:21:20;101094.75;;;17.24;79.84
62152;BME280;48139;47.474;19.034;2022-10-26T14:27:48;101088.88;;;17.19;81.24
62152;BME280;48139;47.474;19.034;2022-10-26T14:30:51;101098.81;;;17.29;81.31
62152;BME280;48139;47.474;19.034;2022-10-26T14:33:55;101096.66;;;17.22;81.21
62152;BME280;48139;47.474;19.034;2022-10-26T14:37:02;101093.25;;;17.06;82.72
62152;BME280;48139;47.474;19.034;2022-10-26T14:40:13;101093.16;;;16.93;83.37
62152;BME280;48139;47.474;19.034;2022-10-26T14:43:20;101087.69;;;16.96;83.22
62152;BME280;48139;47.474;19.034;2022-10-26T14:46:24;101089.09;;;17.02;82.74
62152;BME280;48139;47.474;19.034;2022-10-26T14:49:28;101086.75;;;16.97;83.59
62152;BME280;48139;47.474;19.034;2022-10-26T14:52:33;101089.56;;;16.94;83.92
62152;BME280;48139;47.474;19.034;2022-10-26T14:55:48;101094.22;;;16.90;84.65
62152;BME280;48139;47.474;19.034;2022-10-26T14:58:52;101099.66;;;16.87;84.95
62152;BME280;48139;47.474;19.034;2022-10-26T15:02:14;101099.59;;;16.89;84.01
62152;BME280;48139;47.474;19.034;2022-10-26T15:08:45;101098.16;;;16.69;86.11
62152;BME280;48139;47.474;19.034;2022-10-26T15:11:58;101092.59;;;16.74;84.45
62152;BME280;48139;47.474;19.034;2022-10-26T15:18:21;101097.53;;;16.50;86.95
62152;BME280;48139;47.474;19.034;2022-10-26T15:21:36;101102.69;;;16.37;88.82
62152;BME280;48139;47.474;19.034;2022-10-26T15:24:41;101108.63;;;16.27;89.36
62152;BME280;48139;47.474;19.034;2022-10-26T15:27:46;101105.13;;;16.26;89.65
62152;BME280;48139;47.474;19.034;2022-10-26T15:31:06;101113.81;;;16.28;89.81
62152;BME280;48139;47.474;19.034;2022-10-26T15:34:25;101116.81;;;16.22;90.20
62152;BME280;48139;47.474;19.034;2022-10-26T15:37:27;101109.31;;;16.30;89.36
62152;BME280;48139;47.474;19.034;2022-10-26T15:40:30;101117.19;;;16.16;89.90
62152;BME280;48139;47.474;19.034;2022-10-26T15:43:32;101122.06;;;16.08;90.77
